Time;durP1;ratioP1;P1;durP2;ratioP2;P2;SDS_P1;SDS_P2;PMS_P1;PMS_P2;Temp;Humidity;BMP_temperature;BMP_pressure;BME280_temperature;BME280_humidity;BME280_pressure;Samples;Min_cycle;Max_cycle;Signal;HPM_P1;HPM_P2
2023/11/01 00:01:17;;;;;;;;;;;;;;;11.56;83.54;99212.89;107548;277;93801;-56
2023/11/01 00:03:55;;;;;;;;;;;;;;;11.50;83.55;99212.70;107488;277;96075;-57
2023/11/01 00:06:32;;;;;;;;;;;;;;;11.45;83.50;99222.31;107467;277;121664;-57
2023/11/01 00:09:09;;;;;;;;;;;;;;;11.38;83.35;99222.35;107529;277;104466;-56
2023/11/01 00:11:45;;;;;;;;;;;;;;;11.26;83.37;99230.66;107466;277;114778;-55
2023/11/01 00:14:20;;;;;;;;;;;;;;;11.18;83.40;99230.98;107526;277;96157;-53
2023/11/01 00:16:56;;;;;;;;;;;;;;;11.11;83.27;99239.98;107491;277;96525;-54
2023/11/01 00:19:32;;;;;;;;;;;;;;;11.05;83.48;99249.10;107516;277;120332;-52
2023/11/01 00:22:07;;;;;;;;;;;;;;;11.02;83.53;99254.33;107522;277;104891;-53
2023/11/01 00:24:44;;;;;;;;;;;;;;;10.99;83.63;99264.20;107579;277;113889;-55
2023/11/01 00:27:20;;;;;;;;;;;;;;;10.97;83.66;99269.80;107516;277;96773;-54
2023/11/01 00:29:54;;;;;;;;;;;;;;;10.97;83.59;99276.22;107466;277;97838;-57
2023/11/01 00:32:29;;;;;;;;;;;;;;;10.97;83.80;99280.17;107564;277;122465;-53
2023/11/01 00:35:08;;;;;;;;;;;;;;;10.97;83.65;99286.45;107517;277;106104;-52
2023/11/01 00:37:44;;;;;;;;;;;;;;;10.99;83.68;99287.81;107536;277;113732;-56
2023/11/01 00:40:21;;;;;;;;;;;;;;;10.97;83.68;99288.08;107496;277;95874;-55
2023/11/01 00:42:59;;;;;;;;;;;;;;;11.00;83.61;99288.64;107549;277;97741;-54
2023/11/01 00:45:36;;;;;;;;;;;;;;;10.99;83.46;99293.05;107518;277;122272;-54
2023/11/01 00:48:16;;;;;;;;;;;;;;;10.96;83.46;99291.07;107597;277;105949;-58
2023/11/01 00:50:52;;;;;;;;;;;;;;;10.88;83.51;99290.52;107530;277;114372;-55
2023/11/01 00:53:30;;;;;;;;;;;;;;;10.82;83.50;99291.89;107507;277;93237;-56
2023/11/01 00:56:05;;;;;;;;;;;;;;;10.73;83.57;99294.23;107540;277;98420;-56
2023/11/01 00:58:37;;;;;;;;;;;;;;;10.64;83.62;99297.90;107525;277;120550;-55
2023/11/01 01:01:11;;;;;;;;;;;;;;;10.52;83.76;99302.77;107545;277;105399;-55
2023/11/01 01:03:45;;;;;;;;;;;;;;;10.44;83.83;99311.24;107539;277;114197;-52
2023/11/01 01:06:21;;;;;;;;;;;;;;;10.38;84.02;99316.88;107541;277;93424;-53
2023/11/01 01:09:01;;;;;;;;;;;;;;;10.29;84.16;99316.17;107545;277;97146;-52
2023/11/01 01:11:36;;;;;;;;;;;;;;;10.24;84.33;99320.48;107567;277;121328;-51
2023/11/01 01:14:09;;;;;;;;;;;;;;;10.22;84.34;99322.19;107576;277;105076;-52
2023/11/01 01:16:43;;;;;;;;;;;;;;;10.20;84.37;99326.63;107499;277;114341;-52
2023/11/01 01:19:17;;;;;;;;;;;;;;;10.22;84.54;99331.77;107598;277;94183;-56
2023/11/01 01:21:53;;;;;;;;;;;;;;;10.24;84.43;99330.73;107553;277;97508;-55
2023/11/01 01:24:27;;;;;;;;;;;;;;;10.25;84.57;99331.67;107585;277;120385;-56
2023/11/01 01:27:01;;;;;;;;;;;;;;;10.28;84.51;99336.45;107616;277;105406;-55
2023/11/01 01:29:36;;;;;;;;;;;;;;;10.31;84.48;99337.34;107547;277;114561;-57
2023/11/01 01:32:15;;;;;;;;;;;;;;;10.33;84.42;99342.66;107533;277;97967;-57
2023/11/01 01:34:52;;;;;;;;;;;;;;;10.37;84.48;99343.71;107629;277;96824;-52
2023/11/01 01:37:26;;;;;;;;;;;;;;;10.42;84.37;99348.02;107559;277;121083;-53
2023/11/01 01:40:05;;;;;;;;;;;;;;;10.48;84.40;99346.50;107561;277;105703;-53
2023/11/01 01:42:39;;;;;;;;;;;;;;;10.54;84.34;99347.10;107617;277;115072;-56
2023/11/01 01:45:17;;;;;;;;;;;;;;;10.53;84.17;99346.77;107536;277;94477;-55
2023/11/01 01:47:55;;;;;;;;;;;;;;;10.54;84.27;99336.91;107606;277;97752;-53
2023/11/01 01:50:34;;;;;;;;;;;;;;;10.53;84.23;99340.08;107601;277;121284;-53
2023/11/01 01:53:08;;;;;;;;;;;;;;;10.50;84.34;99342.30;107636;277;104178;-56
2023/11/01 01:55:50;;;;;;;;;;;;;;;10.48;84.15;99341.39;107565;277;113311;-56
2023/11/01 01:58:27;;;;;;;;;;;;;;;10.45;84.35;99341.86;107608;277;93668;-53
2023/11/01 02:01:05;;;;;;;;;;;;;;;10.37;84.19;99342.38;107572;277;98210;-53
2023/11/01 02:03:43;;;;;;;;;;;;;;;10.29;84.32;99344.34;107626;277;121537;-57
2023/11/01 02:06:20;;;;;;;;;;;;;;;10.23;84.48;99343.10;107579;277;105105;-57
2023/11/01 02:09:00;;;;;;;;;;;;;;;10.22;84.46;99340.45;107464;277;115040;-54
2023/11/01 02:11:43;;;;;;;;;;;;;;;10.20;84.56;99344.44;107599;277;96156;-54
2023/11/01 02:14:21;;;;;;;;;;;;;;;10.22;84.63;99337.92;107655;277;98118;-52
2023/11/01 02:17:01;;;;;;;;;;;;;;;10.26;84.63;99336.61;107599;277;121450;-53
2023/11/01 02:19:39;;;;;;;;;;;;;;;10.30;84.74;99337.70;107575;277;104607;-52
2023/11/01 02:22:16;;;;;;;;;;;;;;;10.31;84.77;99346.19;107579;277;114092;-52
2023/11/01 02:24:55;;;;;;;;;;;;;;;10.32;84.89;99350.89;107568;277;95742;-56
2023/11/01 02:27:33;;;;;;;;;;;;;;;10.31;84.92;99355.20;107613;277;97690;-54
2023/11/01 02:30:16;;;;;;;;;;;;;;;10.34;85.09;99354.02;107576;277;121409;-53
2023/11/01 02:32:54;;;;;;;;;;;;;;;10.38;85.00;99357.37;107558;277;105284;-56
2023/11/01 02:35:29;;;;;;;;;;;;;;;10.43;84.89;99365.75;107475;277;114656;-55
2023/11/01 02:38:09;;;;;;;;;;;;;;;10.53;84.82;99368.36;107504;277;94290;-56
2023/11/01 02:40:45;;;;;;;;;;;;;;;10.54;84.83;99370.93;107469;277;97176;-55
2023/11/01 02:43:21;;;;;;;;;;;;;;;10.50;85.02;99368.96;107541;277;121585;-55
2023/11/01 02:46:01;;;;;;;;;;;;;;;10.49;85.05;99371.78;107494;277;105445;-57
2023/11/01 02:48:37;;;;;;;;;;;;;;;10.47;84.99;99373.25;107506;277;114248;-54
2023/11/01 02:51:13;;;;;;;;;;;;;;;10.44;84.94;99375.63;106927;277;708852;-53
2023/11/01 02:53:47;;;;;;;;;;;;;;;10.42;85.04;99372.31;107522;277;97002;-53
2023/11/01 02:56:27;;;;;;;;;;;;;;;10.40;85.00;99378.67;107443;277;121878;-53
2023/11/01 02:59:04;;;;;;;;;;;;;;;10.36;85.17;99381.34;107510;277;105176;-56
2023/11/01 03:01:42;;;;;;;;;;;;;;;10.37;85.00;99380.77;107446;277;114902;-55
2023/11/01 03:04:20;;;;;;;;;;;;;;;10.37;85.23;99379.48;107506;277;97123;-54
2023/11/01 03:07:00;;;;;;;;;;;;;;;10.36;85.25;99382.67;107491;277;97959;-53
2023/11/01 03:09:36;;;;;;;;;;;;;;;10.37;85.60;99381.75;107459;277;121458;-55
2023/11/01 03:12:12;;;;;;;;;;;;;;;10.43;85.42;99383.10;107469;277;104833;-56
2023/11/01 03:14:50;;;;;;;;;;;;;;;10.48;85.40;99387.45;107449;277;114732;-52
2023/11/01 03:17:22;;;;;;;;;;;;;;;10.51;85.44;99387.98;107509;277;96635;-53
2023/11/01 03:20:00;;;;;;;;;;;;;;;10.55;85.38;99386.84;107513;277;97673;-53
2023/11/01 03:22:35;;;;;;;;;;;;;;;10.61;85.42;99387.12;107507;277;122771;-52
2023/11/01 03:25:14;;;;;;;;;;;;;;;10.65;85.32;99390.25;107504;277;105411;-52
2023/11/01 03:27:51;;;;;;;;;;;;;;;10.66;85.49;99391.91;107504;277;115056;-52
2023/11/01 03:30:32;;;;;;;;;;;;;;;10.70;85.71;99391.23;107502;277;96872;-51
2023/11/01 03:33:10;;;;;;;;;;;;;;;10.72;85.62;99398.00;107565;277;97434;-55
2023/11/01 03:35:46;;;;;;;;;;;;;;;10.72;85.61;99400.33;107518;277;120334;-55
2023/11/01 03:38:21;;;;;;;;;;;;;;;10.74;85.58;99403.64;107548;277;105293;-56
2023/11/01 03:40:57;;;;;;;;;;;;;;;10.73;85.54;99407.42;107490;277;114082;-57
2023/11/01 03:43:33;;;;;;;;;;;;;;;10.66;85.64;99410.28;107502;277;95100;-55
2023/11/01 03:46:09;;;;;;;;;;;;;;;10.61;85.63;99409.22;107549;277;97376;-55
2023/11/01 03:48:48;;;;;;;;;;;;;;;10.53;85.51;99415.36;107489;277;121266;-57
2023/11/01 03:51:23;;;;;;;;;;;;;;;10.41;85.65;99422.33;107497;277;105895;-56
2023/11/01 03:53:56;;;;;;;;;;;;;;;10.30;85.74;99424.61;107458;277;114706;-52
2023/11/01 03:56:33;;;;;;;;;;;;;;;10.23;85.87;99429.31;107553;277;94843;-52
2023/11/01 03:59:09;;;;;;;;;;;;;;;10.13;85.92;99430.19;107514;277;98387;-57
2023/11/01 04:01:41;;;;;;;;;;;;;;;10.02;85.95;99432.67;107505;278;121464;-57
2023/11/01 04:04:14;;;;;;;;;;;;;;;9.95;86.25;99435.63;107505;278;104624;-52
2023/11/01 04:06:50;;;;;;;;;;;;;;;9.91;86.38;99439.27;107480;278;114505;-52
2023/11/01 04:09:23;;;;;;;;;;;;;;;9.90;86.45;99438.02;107514;278;96172;-55
2023/11/01 04:11:56;;;;;;;;;;;;;;;9.91;86.50;99438.96;107505;278;96954;-57
2023/11/01 04:14:32;;;;;;;;;;;;;;;9.92;86.78;99436.29;107530;278;121508;-53
2023/11/01 04:17:07;;;;;;;;;;;;;;;9.94;86.85;99438.44;107509;278;105909;-52
2023/11/01 04:19:45;;;;;;;;;;;;;;;9.97;86.78;99440.94;107465;278;114906;-53
2023/11/01 04:22:23;;;;;;;;;;;;;;;9.94;86.80;99442.46;107485;278;97653;-53
2023/11/01 04:24:56;;;;;;;;;;;;;;;9.91;86.77;99444.09;107449;279;98122;-52
2023/11/01 04:27:29;;;;;;;;;;;;;;;9.87;86.91;99448.25;107476;278;122451;-56
2023/11/01 04:30:05;;;;;;;;;;;;;;;9.84;86.71;99454.76;107492;271;103248;-57
2023/11/01 04:32:39;;;;;;;;;;;;;;;9.83;86.82;99462.89;107440;274;112544;-56
2023/11/01 04:35:18;;;;;;;;;;;;;;;9.77;86.86;99460.60;107421;278;97480;-57
2023/11/01 04:37:54;;;;;;;;;;;;;;;9.79;86.89;99459.23;107466;278;98185;-53
2023/11/01 04:40:29;;;;;;;;;;;;;;;9.81;86.90;99465.26;107509;278;120943;-53
2023/11/01 04:43:05;;;;;;;;;;;;;;;9.81;86.68;99463.27;107513;278;105667;-56
2023/11/01 04:45:43;;;;;;;;;;;;;;;9.79;86.43;99461.48;107389;278;113875;-57
2023/11/01 04:48:21;;;;;;;;;;;;;;;9.73;86.01;99464.64;107499;278;94665;-56
2023/11/01 04:50:59;;;;;;;;;;;;;;;9.61;85.95;99467.00;107495;278;97449;-56
2023/11/01 04:53:36;;;;;;;;;;;;;;;9.49;85.90;99470.37;107469;278;121804;-55
2023/11/01 04:56:18;;;;;;;;;;;;;;;9.36;85.71;99473.58;107347;278;105647;-55
2023/11/01 04:58:56;;;;;;;;;;;;;;;9.23;85.75;99474.21;107525;278;113311;-53
2023/11/01 05:01:32;;;;;;;;;;;;;;;9.14;85.79;99485.14;107477;277;93583;-54
2023/11/01 05:04:09;;;;;;;;;;;;;;;9.05;85.65;99487.46;107563;277;98209;-54
2023/11/01 05:06:44;;;;;;;;;;;;;;;8.95;85.87;99488.58;107549;277;120782;-53
2023/11/01 05:09:19;;;;;;;;;;;;;;;8.86;85.95;99491.11;107614;277;105422;-53
2023/11/01 05:11:58;;;;;;;;;;;;;;;8.78;85.99;99492.11;107557;277;111589;-52
2023/11/01 05:14:38;;;;;;;;;;;;;;;8.69;86.16;99499.48;107557;277;94847;-56
2023/11/01 05:17:19;;;;;;;;;;;;;;;8.62;86.16;99506.39;107553;277;96712;-52
2023/11/01 05:20:05;;;;;;;;;;;;;;;8.56;86.30;99508.81;107546;277;121167;-53
2023/11/01 05:22:47;;;;;;;;;;;;;;;8.51;86.52;99516.31;107551;277;106555;-56
2023/11/01 05:25:27;;;;;;;;;;;;;;;8.51;86.76;99516.31;107515;277;112797;-56
2023/11/01 05:28:04;;;;;;;;;;;;;;;8.51;86.96;99520.41;107557;277;95657;-53
2023/11/01 05:30:37;;;;;;;;;;;;;;;8.52;86.95;99531.52;107556;277;95878;-53
2023/11/01 05:33:18;;;;;;;;;;;;;;;8.55;87.03;99534.80;107609;277;121372;-57
2023/11/01 05:35:54;;;;;;;;;;;;;;;8.58;87.28;99541.58;107569;277;106502;-56
2023/11/01 05:38:29;;;;;;;;;;;;;;;8.63;87.29;99545.88;107548;277;114488;-53
2023/11/01 05:41:03;;;;;;;;;;;;;;;8.69;87.48;99551.89;107469;277;95484;-52
2023/11/01 05:43:39;;;;;;;;;;;;;;;8.75;87.38;99558.33;107577;277;98384;-57
2023/11/01 05:46:22;;;;;;;;;;;;;;;8.77;87.49;99562.52;107517;277;123057;-57
2023/11/01 05:48:59;;;;;;;;;;;;;;;8.79;87.53;99568.55;107520;277;105733;-57
2023/11/01 05:51:39;;;;;;;;;;;;;;;8.81;87.70;99565.09;107572;277;113529;-57
2023/11/01 05:54:13;;;;;;;;;;;;;;;8.82;87.61;99571.89;107561;277;96701;-52
2023/11/01 05:56:51;;;;;;;;;;;;;;;8.83;87.63;99575.00;107634;277;97356;-52
2023/11/01 05:59:31;;;;;;;;;;;;;;;8.90;87.63;99578.31;107601;277;121290;-52
2023/11/01 06:02:10;;;;;;;;;;;;;;;9.00;87.67;99580.93;107606;277;106230;-52
2023/11/01 06:04:47;;;;;;;;;;;;;;;9.09;87.54;99583.05;107538;277;113484;-55
2023/11/01 06:07:25;;;;;;;;;;;;;;;9.16;87.35;99588.67;107636;277;94507;-53
2023/11/01 06:10:01;;;;;;;;;;;;;;;9.22;87.28;99593.48;107568;277;98181;-53
2023/11/01 06:12:36;;;;;;;;;;;;;;;9.27;87.06;99596.48;107616;277;121311;-53
2023/11/01 06:15:11;;;;;;;;;;;;;;;9.27;87.15;99596.41;107555;277;105403;-54
2023/11/01 06:17:43;;;;;;;;;;;;;;;9.26;86.92;99604.61;107587;277;113589;-56
2023/11/01 06:20:18;;;;;;;;;;;;;;;9.24;86.75;99606.73;107558;277;95929;-57
2023/11/01 06:22:55;;;;;;;;;;;;;;;9.22;86.53;99608.56;107626;277;95928;-57
2023/11/01 06:25:30;;;;;;;;;;;;;;;9.22;86.52;99612.94;107610;277;120749;-57
2023/11/01 06:28:09;;;;;;;;;;;;;;;9.25;86.23;99612.85;107611;277;104074;-52
2023/11/01 06:30:47;;;;;;;;;;;;;;;9.27;86.23;99615.83;107541;277;114259;-52
2023/11/01 06:33:21;;;;;;;;;;;;;;;9.31;86.18;99619.78;107452;277;98083;-52
2023/11/01 06:35:53;;;;;;;;;;;;;;;9.45;86.43;99620.79;107564;277;97785;-52
2023/11/01 06:38:32;;;;;;;;;;;;;;;9.52;86.06;99620.19;107491;277;121069;-55
2023/11/01 06:41:11;;;;;;;;;;;;;;;9.76;86.19;99621.85;107466;277;104328;-55
2023/11/01 06:43:48;;;;;;;;;;;;;;;9.92;85.89;99629.70;107530;277;113856;-55
2023/11/01 06:46:23;;;;;;;;;;;;;;;10.15;85.55;99630.11;107459;277;94534;-55
2023/11/01 06:48:58;;;;;;;;;;;;;;;10.23;85.04;99639.84;107535;277;97216;-52
2023/11/01 06:51:34;;;;;;;;;;;;;;;10.29;84.70;99646.91;107534;277;121969;-53
2023/11/01 06:54:07;;;;;;;;;;;;;;;10.34;84.33;99651.28;107526;277;104965;-55
2023/11/01 06:56:46;;;;;;;;;;;;;;;10.29;84.15;99656.09;107452;277;114661;-55
2023/11/01 06:59:27;;;;;;;;;;;;;;;10.32;84.09;99654.14;107514;277;95162;-56
2023/11/01 07:02:00;;;;;;;;;;;;;;;10.34;83.85;99655.84;107517;277;97523;-58
2023/11/01 07:04:34;;;;;;;;;;;;;;;10.37;83.65;99658.30;107514;277;123065;-56
2023/11/01 07:07:11;;;;;;;;;;;;;;;10.39;83.50;99660.13;107498;277;105715;-56
2023/11/01 07:09:53;;;;;;;;;;;;;;;10.45;83.32;99662.65;107484;277;114265;-55
2023/11/01 07:12:30;;;;;;;;;;;;;;;10.40;83.19;99664.91;107462;277;93550;-56
2023/11/01 07:15:08;;;;;;;;;;;;;;;10.48;83.10;99666.73;107512;277;96957;-55
2023/11/01 07:17:43;;;;;;;;;;;;;;;10.62;83.07;99669.10;107518;277;120400;-57
2023/11/01 07:20:21;;;;;;;;;;;;;;;10.68;82.78;99669.83;107454;277;104826;-57
2023/11/01 07:23:00;;;;;;;;;;;;;;;10.68;82.54;99665.70;107466;277;113979;-53
2023/11/01 07:25:35;;;;;;;;;;;;;;;10.70;82.65;99666.05;107499;277;94335;-52
2023/11/01 07:28:09;;;;;;;;;;;;;;;10.80;82.30;99665.17;107494;277;97573;-58
2023/11/01 07:30:48;;;;;;;;;;;;;;;11.13;82.30;99663.84;107437;277;122269;-56
2023/11/01 07:33:22;;;;;;;;;;;;;;;11.33;81.66;99662.17;107485;277;105432;-56
2023/11/01 07:35:59;;;;;;;;;;;;;;;11.39;81.30;99665.83;107439;277;114655;-55
2023/11/01 07:38:37;;;;;;;;;;;;;;;11.25;81.08;99667.40;107484;277;96019;-54
2023/11/01 07:41:17;;;;;;;;;;;;;;;11.12;80.91;99668.63;107501;277;98510;-53
2023/11/01 07:43:56;;;;;;;;;;;;;;;11.19;80.59;99669.44;107536;277;122903;-52
2023/11/01 07:46:37;;;;;;;;;;;;;;;11.57;80.64;99670.52;107463;277;105465;-51
2023/11/01 07:49:16;;;;;;;;;;;;;;;11.78;80.53;99677.90;107518;277;114419;-52
2023/11/01 07:51:50;;;;;;;;;;;;;;;11.97;80.08;99680.87;107524;277;94165;-53
2023/11/01 07:54:26;;;;;;;;;;;;;;;12.45;79.17;99684.38;107508;277;98106;-52
2023/11/01 07:57:04;;;;;;;;;;;;;;;12.66;78.41;99692.89;107582;277;121872;-53
2023/11/01 07:59:41;;;;;;;;;;;;;;;12.57;78.06;99698.51;107594;277;104737;-52
2023/11/01 08:02:23;;;;;;;;;;;;;;;12.37;77.57;99701.67;107463;277;114521;-53
2023/11/01 08:04:59;;;;;;;;;;;;;;;12.17;77.24;99706.17;107503;277;93769;-52
2023/11/01 08:07:34;;;;;;;;;;;;;;;12.05;77.14;99715.19;107582;277;97255;-53
2023/11/01 08:10:10;;;;;;;;;;;;;;;12.05;77.43;99714.60;107525;277;120526;-53
2023/11/01 08:12:45;;;;;;;;;;;;;;;12.16;76.92;99716.58;107513;277;105471;-53
2023/11/01 08:15:20;;;;;;;;;;;;;;;12.10;76.36;99718.45;107473;277;113941;-53
2023/11/01 08:17:58;;;;;;;;;;;;;;;11.93;76.18;99723.85;107497;278;92929;-55
2023/11/01 08:20:33;;;;;;;;;;;;;;;11.95;76.35;99727.92;107548;277;97781;-55
2023/11/01 08:23:08;;;;;;;;;;;;;;;12.20;76.06;99726.52;107524;277;121444;-56
2023/11/01 08:25:42;;;;;;;;;;;;;;;12.55;76.05;99727.15;107566;277;104681;-56
2023/11/01 08:28:15;;;;;;;;;;;;;;;12.99;75.34;99734.59;107538;277;116189;-52
2023/11/01 08:30:49;;;;;;;;;;;;;;;13.25;74.82;99735.55;107535;277;93709;-52
2023/11/01 08:33:25;;;;;;;;;;;;;;;13.14;74.26;99742.92;107523;277;97759;-54
2023/11/01 08:36:01;;;;;;;;;;;;;;;12.99;73.96;99747.27;107521;277;119863;-54
2023/11/01 08:38:45;;;;;;;;;;;;;;;12.82;73.86;99745.10;107541;277;106982;-57
2023/11/01 08:41:25;;;;;;;;;;;;;;;12.76;73.86;99749.35;107556;278;114207;-57
2023/11/01 08:44:02;;;;;;;;;;;;;;;12.67;73.63;99757.34;107469;277;94824;-56
2023/11/01 08:46:39;;;;;;;;;;;;;;;12.51;73.13;99765.28;107491;277;98341;-55
2023/11/01 08:49:15;;;;;;;;;;;;;;;12.51;73.03;99763.02;107520;277;121717;-55
2023/11/01 08:51:54;;;;;;;;;;;;;;;12.43;72.59;99771.48;107431;277;105150;-56
2023/11/01 08:54:31;;;;;;;;;;;;;;;12.24;72.67;99771.58;107562;277;114621;-52
2023/11/01 08:57:05;;;;;;;;;;;;;;;12.16;72.31;99777.57;107583;277;93072;-52
2023/11/01 08:59:42;;;;;;;;;;;;;;;12.24;72.52;99777.25;107586;277;96865;-63
2023/11/01 09:02:17;;;;;;;;;;;;;;;12.29;72.20;99779.80;107569;277;120950;-55
2023/11/01 09:04:57;;;;;;;;;;;;;;;12.70;72.21;99781.66;107505;277;106938;-55
2023/11/01 09:07:29;;;;;;;;;;;;;;;13.40;71.97;99787.95;107496;277;113091;-53
2023/11/01 09:10:13;;;;;;;;;;;;;;;13.96;71.40;99788.19;107561;277;94265;-53
2023/11/01 09:12:50;;;;;;;;;;;;;;;14.83;71.32;99785.04;107530;277;97415;-54
2023/11/01 09:15:26;;;;;;;;;;;;;;;15.60;69.14;99785.25;107492;277;122142;-54
2023/11/01 09:18:04;;;;;;;;;;;;;;;16.38;68.34;99781.14;107555;277;105630;-55
2023/11/01 09:20:47;;;;;;;;;;;;;;;16.90;66.51;99784.00;107572;277;115037;-56
2023/11/01 09:23:21;;;;;;;;;;;;;;;17.28;65.83;99785.80;107542;277;94914;-55
2023/11/01 09:26:03;;;;;;;;;;;;;;;17.22;63.67;99791.31;107567;277;97949;-65
2023/11/01 09:28:35;;;;;;;;;;;;;;;17.17;63.41;99792.16;107598;277;122223;-53
2023/11/01 09:31:17;;;;;;;;;;;;;;;17.64;62.64;99788.86;107548;277;104812;-54
2023/11/01 09:33:53;;;;;;;;;;;;;;;18.06;61.73;99789.04;107586;277;114492;-57
2023/11/01 09:36:32;;;;;;;;;;;;;;;18.43;60.80;99787.17;107607;277;93273;-55
2023/11/01 09:39:08;;;;;;;;;;;;;;;18.81;60.53;99781.92;107609;277;97520;-52
2023/11/01 09:41:55;;;;;;;;;;;;;;;19.06;59.90;99780.20;107486;274;122892;-52
2023/11/01 09:44:31;;;;;;;;;;;;;;;19.32;59.40;99780.67;107536;277;105759;-56
2023/11/01 09:47:07;;;;;;;;;;;;;;;19.29;58.54;99779.49;107562;277;114871;-57
2023/11/01 09:49:47;;;;;;;;;;;;;;;19.33;57.11;99776.84;107573;277;95269;-55
2023/11/01 09:52:20;;;;;;;;;;;;;;;18.81;56.59;99783.35;107646;277;98247;-55
2023/11/01 09:54:56;;;;;;;;;;;;;;;18.51;56.54;99782.19;107604;277;120300;-57
2023/11/01 09:57:31;;;;;;;;;;;;;;;18.19;56.66;99781.34;107606;277;104840;-57
2023/11/01 10:00:04;;;;;;;;;;;;;;;17.55;56.16;99782.64;107508;277;113724;-57
2023/11/01 10:02:38;;;;;;;;;;;;;;;16.93;56.46;99791.79;107581;277;93815;-53
2023/11/01 10:05:15;;;;;;;;;;;;;;;16.34;56.76;99787.73;107589;277;97093;-52
2023/11/01 10:07:50;;;;;;;;;;;;;;;15.80;56.80;99790.48;107619;277;120342;-51
2023/11/01 10:10:36;;;;;;;;;;;;;;;15.23;57.15;99792.11;107404;277;107843;-52
2023/11/01 10:13:14;;;;;;;;;;;;;;;14.85;57.26;99790.31;107578;277;113364;-53
2023/11/01 10:15:51;;;;;;;;;;;;;;;14.48;58.20;99797.61;107571;277;94751;-53
2023/11/01 10:18:29;;;;;;;;;;;;;;;14.27;57.95;99795.27;107578;277;96968;-52
2023/11/01 10:21:04;;;;;;;;;;;;;;;14.07;58.63;99794.57;107570;277;122351;-53
2023/11/01 10:23:39;;;;;;;;;;;;;;;14.05;59.13;99791.39;107624;277;104833;-56
2023/11/01 10:26:16;;;;;;;;;;;;;;;13.88;59.39;99796.84;107589;277;114528;-56
2023/11/01 10:28:56;;;;;;;;;;;;;;;13.86;59.83;99798.92;107624;277;94002;-52
2023/11/01 10:31:33;;;;;;;;;;;;;;;13.81;59.96;99798.65;107579;277;96600;-53
2023/11/01 10:34:16;;;;;;;;;;;;;;;13.77;60.21;99797.09;107606;277;120623;-56
2023/11/01 10:36:59;;;;;;;;;;;;;;;13.82;60.04;99795.54;107571;277;104152;-55
2023/11/01 10:39:41;;;;;;;;;;;;;;;13.82;60.60;99800.38;107484;277;112802;-55
2023/11/01 10:42:18;;;;;;;;;;;;;;;13.83;60.33;99802.75;107474;277;93350;-55
2023/11/01 10:45:00;;;;;;;;;;;;;;;13.83;60.49;99800.62;107443;277;97727;-52
2023/11/01 10:47:37;;;;;;;;;;;;;;;13.72;60.90;99796.14;107487;277;121123;-56
2023/11/01 10:50:10;;;;;;;;;;;;;;;13.62;60.29;99795.60;106961;277;756511;-56
2023/11/01 10:52:43;;;;;;;;;;;;;;;13.50;60.64;99794.00;107528;277;114854;-56
2023/11/01 10:55:24;;;;;;;;;;;;;;;13.43;60.78;99796.70;107487;277;95185;-55
2023/11/01 10:58:00;;;;;;;;;;;;;;;13.41;61.16;99790.84;107478;277;98409;-57
2023/11/01 11:00:38;;;;;;;;;;;;;;;13.40;61.15;99789.23;107473;277;120797;-56
2023/11/01 11:03:24;;;;;;;;;;;;;;;13.38;61.17;99790.52;107528;277;106067;-51
2023/11/01 11:06:10;;;;;;;;;;;;;;;13.32;60.97;99794.55;107433;277;114859;-52
2023/11/01 11:09:05;;;;;;;;;;;;;;;13.28;61.11;99799.59;107471;277;92725;-52
2023/11/01 11:11:42;;;;;;;;;;;;;;;13.26;61.08;99802.22;107513;277;97325;-51
2023/11/01 11:14:45;;;;;;;;;;;;;;;13.25;61.06;99804.74;107545;277;122191;-56
2023/11/01 11:17:24;;;;;;;;;;;;;;;13.14;61.28;99797.49;107503;277;104746;-55
2023/11/01 11:20:13;;;;;;;;;;;;;;;13.07;61.04;99793.11;107499;277;114461;-53
2023/11/01 11:23:12;;;;;;;;;;;;;;;12.97;61.02;99797.91;107492;277;93285;-52
2023/11/01 11:26:07;;;;;;;;;;;;;;;12.89;60.44;99798.73;107482;277;98240;-52
2023/11/01 11:28:47;;;;;;;;;;;;;;;12.82;60.64;99797.14;107482;277;122317;-53
2023/11/01 11:31:24;;;;;;;;;;;;;;;12.74;60.56;99797.04;107543;277;105344;-53
2023/11/01 11:34:14;;;;;;;;;;;;;;;12.65;60.68;99802.88;107443;278;116317;-57
2023/11/01 11:37:14;;;;;;;;;;;;;;;12.49;60.79;99800.50;107461;277;94725;-56
2023/11/01 11:40:08;;;;;;;;;;;;;;;12.28;60.94;99805.92;107527;277;97407;-54
2023/11/01 11:42:51;;;;;;;;;;;;;;;12.14;61.37;99804.45;107564;277;121604;-52
2023/11/01 11:45:32;;;;;;;;;;;;;;;12.03;61.65;99805.45;107538;277;103940;-53
2023/11/01 11:48:22;;;;;;;;;;;;;;;12.04;61.85;99803.40;107507;277;114021;-53
2023/11/01 11:51:05;;;;;;;;;;;;;;;12.03;62.17;99798.81;107550;277;94920;-53
2023/11/01 11:53:41;;;;;;;;;;;;;;;11.93;62.27;99798.02;107555;277;97920;-52
2023/11/01 11:56:19;;;;;;;;;;;;;;;11.91;62.71;99800.80;107457;277;122113;-53
2023/11/01 11:58:52;;;;;;;;;;;;;;;11.87;63.06;99800.08;107536;277;104994;-56
2023/11/01 12:01:33;;;;;;;;;;;;;;;11.97;63.31;99800.92;107520;277;114036;-57
2023/11/01 12:04:09;;;;;;;;;;;;;;;12.05;63.40;99801.69;107520;277;95012;-55
2023/11/01 12:06:47;;;;;;;;;;;;;;;12.09;63.64;99799.98;107481;277;96731;-54
2023/11/01 12:09:29;;;;;;;;;;;;;;;12.12;63.73;99801.40;107582;277;121519;-53
2023/11/01 12:12:14;;;;;;;;;;;;;;;12.13;63.97;99808.86;107535;277;106115;-53
2023/11/01 12:14:59;;;;;;;;;;;;;;;12.19;64.03;99809.94;107517;277;113309;-55
2023/11/01 12:17:36;;;;;;;;;;;;;;;12.17;63.87;99817.60;107579;277;94404;-52
2023/11/01 12:20:11;;;;;;;;;;;;;;;12.11;63.62;99810.09;107554;277;97122;-53
2023/11/01 12:22:44;;;;;;;;;;;;;;;12.02;62.99;99809.74;107565;277;120167;-53
2023/11/01 12:25:26;;;;;;;;;;;;;;;11.94;63.22;99809.84;107509;277;105994;-53
2023/11/01 12:28:00;;;;;;;;;;;;;;;11.83;63.06;99816.91;107540;277;113674;-54
2023/11/01 12:30:37;;;;;;;;;;;;;;;11.71;63.01;99814.27;107508;277;94045;-52
2023/11/01 12:33:33;;;;;;;;;;;;;;;11.55;63.13;99818.50;107494;277;97181;-55
2023/11/01 12:36:08;;;;;;;;;;;;;;;11.42;63.44;99825.50;107550;277;121987;-55
2023/11/01 12:38:46;;;;;;;;;;;;;;;11.31;63.69;99829.58;107537;277;104204;-52
2023/11/01 12:41:19;;;;;;;;;;;;;;;11.19;63.96;99835.60;107459;277;113304;-51
2023/11/01 12:43:55;;;;;;;;;;;;;;;11.04;64.19;99836.50;107537;277;94073;-53
2023/11/01 12:46:34;;;;;;;;;;;;;;;10.91;64.42;99839.31;107507;277;97885;-53
2023/11/01 12:49:14;;;;;;;;;;;;;;;10.82;64.71;99838.34;107560;277;121967;-53
2023/11/01 12:51:49;;;;;;;;;;;;;;;10.76;65.01;99840.60;107498;277;104792;-54
2023/11/01 12:54:25;;;;;;;;;;;;;;;10.68;65.14;99840.80;107576;277;113337;-56
2023/11/01 12:56:58;;;;;;;;;;;;;;;10.59;65.74;99836.82;107546;277;93842;-57
2023/11/01 12:59:37;;;;;;;;;;;;;;;10.51;65.93;99839.86;107596;277;97083;-54
2023/11/01 13:02:17;;;;;;;;;;;;;;;10.42;66.34;99839.72;107545;277;122310;-56
2023/11/01 13:04:51;;;;;;;;;;;;;;;10.35;66.77;99837.89;107478;277;105725;-55
2023/11/01 13:07:24;;;;;;;;;;;;;;;10.32;66.95;99831.45;107528;277;114594;-53
2023/11/01 13:09:56;;;;;;;;;;;;;;;10.30;67.19;99836.55;107504;277;93863;-52
2023/11/01 13:12:31;;;;;;;;;;;;;;;10.28;67.46;99835.91;107532;277;97970;-54
2023/11/01 13:15:08;;;;;;;;;;;;;;;10.33;67.83;99838.17;107530;277;121846;-55
2023/11/01 13:17:43;;;;;;;;;;;;;;;10.44;68.15;99843.29;107509;277;104320;-53
2023/11/01 13:20:24;;;;;;;;;;;;;;;10.58;68.50;99842.96;107541;277;113292;-53
2023/11/01 13:22:58;;;;;;;;;;;;;;;10.72;68.34;99842.39;107562;277;94672;-53
2023/11/01 13:25:37;;;;;;;;;;;;;;;10.82;68.16;99841.41;107568;277;96521;-52
2023/11/01 13:28:14;;;;;;;;;;;;;;;10.89;68.19;99841.23;107601;277;121556;-52
2023/11/01 13:30:50;;;;;;;;;;;;;;;10.95;68.33;99841.27;107563;277;105644;-53
2023/11/01 13:33:32;;;;;;;;;;;;;;;10.97;68.29;99841.57;107588;277;114325;-55
2023/11/01 13:36:07;;;;;;;;;;;;;;;11.00;68.45;99837.50;107504;277;93606;-55